createdAt,value
2023-04-15T00:01:33.846Z,-0.56
2023-04-15T00:04:01.883Z,-0.72
2023-04-15T00:06:29.542Z,-0.96
2023-04-15T00:08:57.098Z,-1.00
2023-04-15T00:11:25.070Z,-1.01
2023-04-15T00:13:54.373Z,-1.05
2023-04-15T00:16:21.951Z,-1.04
2023-04-15T00:18:49.432Z,-1.02
2023-04-15T00:21:17.128Z,-0.99
2023-04-15T00:23:45.092Z,-0.87
2023-04-15T00:26:13.287Z,-1.17
2023-04-15T00:28:40.898Z,-1.23
2023-04-15T00:31:09.900Z,-1.06
2023-04-15T00:33:37.692Z,-0.93
2023-04-15T00:36:05.935Z,-0.98
2023-04-15T00:38:33.586Z,-1.01
2023-04-15T00:41:01.183Z,-0.99
2023-04-15T00:43:29.596Z,-0.99
2023-04-15T00:45:59.787Z,-0.94
2023-04-15T00:48:29.311Z,-1.37
2023-04-15T00:50:56.766Z,-1.01
2023-04-15T00:53:24.405Z,-1.11
2023-04-15T00:55:52.092Z,-1.10
2023-04-15T00:58:20.013Z,-1.08
2023-04-15T01:00:47.753Z,-1.05
2023-04-15T01:03:15.511Z,-1.08
2023-04-15T01:05:44.701Z,-1.03
2023-04-15T01:08:12.275Z,-1.28
2023-04-15T01:10:40.403Z,-1.18
2023-04-15T01:13:08.170Z,-1.25
2023-04-15T01:15:37.103Z,-0.98
2023-04-15T01:18:04.843Z,-1.06
2023-04-15T01:20:32.770Z,-1.10
2023-04-15T01:23:02.167Z,-1.16
2023-04-15T01:25:34.697Z,-1.22
2023-04-15T01:28:03.199Z,-1.33
2023-04-15T01:30:34.600Z,-1.24
2023-04-15T01:33:02.639Z,-1.46
2023-04-15T01:35:30.248Z,-1.40
2023-04-15T01:38:05.176Z,-1.47
2023-04-15T01:40:34.211Z,-1.58
2023-04-15T01:43:02.090Z,-1.65
2023-04-15T01:45:29.855Z,-1.64
2023-04-15T01:47:57.537Z,-1.45
2023-04-15T01:50:25.750Z,-1.35
2023-04-15T01:52:53.449Z,-1.47
2023-04-15T01:55:21.745Z,-1.52
2023-04-15T01:57:50.570Z,-1.61
2023-04-15T02:00:18.167Z,-1.55
2023-04-15T02:02:45.974Z,-1.61
2023-04-15T02:05:13.503Z,-1.60
2023-04-15T02:07:40.983Z,-1.51
2023-04-15T02:10:09.303Z,-1.59
2023-04-15T02:12:36.851Z,-1.69
2023-04-15T02:15:07.131Z,-1.55
2023-04-15T02:17:36.342Z,-1.52
2023-04-15T02:20:05.839Z,-1.60
2023-04-15T02:22:33.421Z,-1.66
2023-04-15T02:25:01.024Z,-1.82
2023-04-15T02:27:29.182Z,-1.76
2023-04-15T02:29:56.818Z,-1.87
2023-04-15T02:32:26.225Z,-1.78
2023-04-15T02:34:53.886Z,-1.64
2023-04-15T02:37:21.917Z,-1.74
2023-04-15T02:39:49.901Z,-1.71
2023-04-15T02:42:17.484Z,-1.79
2023-04-15T02:44:45.383Z,-1.99
2023-04-15T02:47:12.882Z,-1.88
2023-04-15T02:49:41.772Z,-1.92
2023-04-15T02:52:09.934Z,-1.87
2023-04-15T02:54:37.405Z,-1.94
2023-04-15T02:57:06.665Z,-1.81
2023-04-15T02:59:34.226Z,-1.80
2023-04-15T03:02:01.760Z,-1.80
2023-04-15T03:04:30.099Z,-1.76
2023-04-15T03:06:59.008Z,-2.02
2023-04-15T03:09:26.535Z,-2.06
2023-04-15T03:11:54.859Z,-2.15
2023-04-15T03:14:22.818Z,-2.16
2023-04-15T03:16:51.819Z,-1.99
2023-04-15T03:19:19.418Z,-1.88
2023-04-15T03:21:46.967Z,-2.15
2023-04-15T03:24:15.860Z,-2.11
2023-04-15T03:26:43.417Z,-2.15
2023-04-15T03:29:11.180Z,-2.13
2023-04-15T03:31:38.699Z,-2.21
2023-04-15T03:34:06.557Z,-2.12
2023-04-15T03:36:34.132Z,-2.17
2023-04-15T03:39:02.551Z,-2.32
2023-04-15T03:41:32.764Z,-2.26
2023-04-15T03:44:00.472Z,-2.21
2023-04-15T03:46:28.110Z,-2.15
2023-04-15T03:48:56.404Z,-2.19
2023-04-15T03:51:24.246Z,-2.49
2023-04-15T03:53:51.792Z,-2.43
2023-04-15T03:56:19.372Z,-2.38
2023-04-15T03:58:48.267Z,-2.39
2023-04-15T04:01:16.457Z,-2.24
2023-04-15T04:03:44.312Z,-2.32
2023-04-15T04:06:12.736Z,-2.38
2023-04-15T04:08:40.540Z,-2.31
2023-04-15T04:11:08.398Z,-2.65
2023-04-15T04:13:35.950Z,-2.58
2023-04-15T04:16:05.580Z,-2.47
2023-04-15T04:18:33.491Z,-2.34
2023-04-15T04:21:02.200Z,-2.59
2023-04-15T04:23:29.975Z,-2.45
2023-04-15T04:25:57.614Z,-2.30
2023-04-15T04:28:25.157Z,-2.45
2023-04-15T04:30:52.700Z,-2.48
2023-04-15T04:33:21.650Z,-2.40
2023-04-15T04:35:49.157Z,-2.41
2023-04-15T04:38:16.740Z,-2.56
2023-04-15T04:40:44.480Z,-2.37
2023-04-15T04:43:12.198Z,-2.34
2023-04-15T04:45:39.779Z,-2.38
2023-04-15T04:48:08.728Z,-2.43
2023-04-15T04:50:38.251Z,-2.40
2023-04-15T04:53:07.304Z,-2.45
2023-04-15T04:55:36.803Z,-2.36
2023-04-15T04:58:04.648Z,-2.32
2023-04-15T05:00:32.520Z,-2.32
2023-04-15T05:03:00.561Z,-2.28
2023-04-15T05:05:28.331Z,-2.50
2023-04-15T05:07:57.341Z,-2.22
2023-04-15T05:10:24.870Z,-2.16
2023-04-15T05:12:52.842Z,-1.97
2023-04-15T05:15:20.466Z,-2.01
2023-04-15T05:17:47.997Z,-1.92
2023-04-15T05:20:15.614Z,-1.78
2023-04-15T05:22:43.384Z,-1.72
2023-04-15T05:25:12.747Z,-1.82
2023-04-15T05:27:40.466Z,-1.53
2023-04-15T05:30:09.345Z,-1.45
2023-04-15T05:32:37.564Z,-1.36
2023-04-15T05:35:05.554Z,-1.32
2023-04-15T05:37:33.120Z,-1.07
2023-04-15T05:40:00.929Z,-1.01
2023-04-15T05:42:30.362Z,-0.89
2023-04-15T05:44:58.249Z,-0.74
2023-04-15T05:47:25.808Z,-0.71
2023-04-15T05:49:53.305Z,-0.31
2023-04-15T05:52:21.226Z,-0.12
2023-04-15T05:54:48.720Z,0.14
2023-04-15T05:57:16.152Z,0.40
2023-04-15T05:59:44.962Z,0.86
2023-04-15T06:02:13.387Z,1.01
2023-04-15T06:04:41.073Z,1.02
2023-04-15T06:07:08.713Z,1.41
2023-04-15T06:09:36.752Z,1.70
2023-04-15T06:12:04.680Z,2.09
2023-04-15T06:14:32.242Z,2.39
2023-04-15T06:17:01.099Z,2.48
2023-04-15T06:19:28.538Z,2.72
2023-04-15T06:21:56.154Z,3.13
2023-04-15T06:24:23.677Z,3.32
2023-04-15T06:26:51.163Z,3.67
2023-04-15T06:29:18.695Z,3.84
2023-04-15T06:31:48.017Z,4.09
2023-04-15T06:34:16.987Z,4.40
2023-04-15T06:36:44.449Z,4.58
2023-04-15T06:39:12.192Z,4.71
2023-04-15T06:41:39.797Z,5.05
2023-04-15T06:44:08.046Z,5.19
2023-04-15T06:46:35.515Z,5.33
2023-04-15T06:49:03.769Z,5.44
2023-04-15T06:51:32.817Z,5.55
2023-04-15T06:54:00.280Z,5.75
2023-04-15T06:56:27.701Z,5.92
2023-04-15T06:58:55.145Z,6.00
2023-04-15T07:01:23.153Z,6.07
2023-04-15T07:03:50.686Z,6.16
2023-04-15T07:06:18.246Z,6.16
2023-04-15T07:08:47.018Z,6.15
2023-04-15T07:11:15.069Z,6.01
2023-04-15T07:13:42.517Z,6.10
2023-04-15T07:16:09.960Z,5.91
2023-04-15T07:18:37.520Z,5.87
2023-04-15T07:21:05.507Z,6.13
2023-04-15T07:23:32.984Z,6.18
2023-04-15T07:26:02.275Z,6.16
2023-04-15T07:28:29.709Z,6.29
2023-04-15T07:30:57.990Z,6.04
2023-04-15T07:33:25.485Z,6.25
2023-04-15T07:35:53.070Z,6.60
2023-04-15T07:38:20.589Z,6.79
2023-04-15T07:40:48.331Z,6.66
2023-04-15T07:43:17.382Z,6.91
2023-04-15T07:45:44.982Z,6.61
2023-04-15T07:48:12.501Z,6.55
2023-04-15T07:50:40.249Z,6.81
2023-04-15T07:53:08.180Z,7.01
2023-04-15T07:55:35.710Z,7.09
2023-04-15T07:58:03.131Z,7.08
2023-04-15T08:00:32.107Z,6.94
2023-04-15T08:02:59.827Z,6.80
2023-04-15T08:05:27.476Z,6.98
2023-04-15T08:07:54.910Z,6.84
2023-04-15T08:10:22.622Z,6.70
2023-04-15T08:12:50.662Z,6.88
2023-04-15T08:15:18.311Z,6.92
2023-04-15T08:17:47.179Z,6.78
2023-04-15T08:20:14.649Z,7.08
2023-04-15T08:22:42.541Z,7.03
2023-04-15T08:25:10.675Z,7.30
2023-04-15T08:27:38.291Z,7.47
2023-04-15T08:30:07.289Z,7.60
2023-04-15T08:32:34.809Z,7.42
2023-04-15T08:35:03.787Z,7.83
2023-04-15T08:37:31.267Z,8.11
2023-04-15T08:39:58.864Z,7.82
2023-04-15T08:42:33.469Z,7.76
2023-04-15T08:45:02.362Z,7.57
2023-04-15T08:47:32.768Z,7.82
2023-04-15T08:50:00.680Z,7.66
2023-04-15T08:52:32.256Z,7.79
2023-04-15T08:55:02.601Z,7.58
2023-04-15T08:57:30.633Z,7.55
2023-04-15T08:59:58.223Z,7.65
2023-04-15T09:02:27.607Z,7.86
2023-04-15T09:04:55.318Z,7.93
2023-04-15T09:07:23.796Z,8.07
2023-04-15T09:09:52.840Z,8.26
2023-04-15T09:12:20.294Z,8.64
2023-04-15T09:14:48.197Z,8.57
2023-04-15T09:17:20.449Z,8.41
2023-04-15T09:19:48.245Z,8.40
2023-04-15T09:22:16.550Z,8.47
2023-04-15T09:24:44.041Z,8.57
2023-04-15T09:27:18.318Z,8.37
2023-04-15T09:29:45.986Z,8.36
2023-04-15T09:32:14.855Z,8.39
2023-04-15T09:34:44.395Z,8.58
2023-04-15T09:37:24.236Z,8.60
2023-04-15T09:39:56.324Z,8.43
2023-04-15T09:42:26.601Z,8.16
2023-04-15T09:44:54.059Z,8.86
2023-04-15T09:47:31.541Z,8.56
2023-04-15T09:49:59.923Z,8.37
2023-04-15T09:52:28.548Z,8.64
2023-04-15T09:54:58.396Z,8.64
2023-04-15T09:57:35.597Z,8.62
2023-04-15T10:00:03.696Z,8.46
2023-04-15T10:02:31.963Z,8.47
2023-04-15T10:05:00.685Z,8.58
2023-04-15T10:07:28.632Z,8.33
2023-04-15T10:09:57.862Z,8.56
2023-04-15T10:12:27.172Z,8.48
2023-04-15T10:15:00.124Z,8.71
2023-04-15T10:17:31.738Z,8.46
2023-04-15T10:20:01.631Z,8.38
2023-04-15T10:22:30.029Z,8.38
2023-04-15T10:24:57.997Z,8.21
2023-04-15T10:27:28.064Z,8.46
2023-04-15T10:29:55.733Z,8.51
2023-04-15T10:32:24.886Z,8.44
2023-04-15T10:34:54.636Z,8.41
2023-04-15T10:37:23.277Z,8.40
2023-04-15T10:39:51.006Z,8.40
2023-04-15T10:42:20.135Z,8.43
2023-04-15T10:44:52.821Z,8.65
2023-04-15T10:47:22.230Z,8.57
2023-04-15T10:49:51.110Z,8.52
2023-04-15T10:52:23.943Z,8.85
2023-04-15T10:54:51.516Z,8.58
2023-04-15T10:57:23.646Z,8.61
2023-04-15T11:00:12.843Z,9.12
2023-04-15T11:02:45.824Z,8.82
2023-04-15T11:05:14.308Z,8.90
2023-04-15T11:07:49.541Z,8.78
2023-04-15T11:10:53.904Z,8.87
2023-04-15T11:13:25.130Z,8.65
2023-04-15T11:15:58.356Z,8.42
2023-04-15T11:18:28.195Z,8.73
2023-04-15T11:20:57.876Z,8.77
2023-04-15T11:23:34.000Z,8.93
2023-04-15T11:26:02.418Z,8.82
2023-04-15T11:28:32.025Z,8.70
2023-04-15T11:31:08.452Z,9.03
2023-04-15T11:33:36.192Z,9.05
2023-04-15T11:36:04.487Z,9.14
2023-04-15T11:38:32.381Z,9.29
2023-04-15T11:41:00.369Z,9.28
2023-04-15T11:43:27.869Z,9.17
2023-04-15T11:45:56.946Z,9.08
2023-04-15T11:48:27.677Z,9.23
2023-04-15T11:50:56.948Z,8.94
2023-04-15T11:53:25.322Z,9.15
2023-04-15T11:55:54.162Z,9.33
2023-04-15T11:58:24.174Z,9.11
2023-04-15T12:00:53.962Z,9.21
2023-04-15T12:03:26.570Z,9.20
2023-04-15T12:06:21.957Z,9.07
2023-04-15T12:08:50.985Z,9.67
2023-04-15T12:11:18.673Z,9.66
2023-04-15T12:13:47.155Z,9.87
2023-04-15T12:16:17.468Z,9.52
2023-04-15T12:18:48.171Z,9.63
2023-04-15T12:21:15.807Z,9.35
2023-04-15T12:23:49.672Z,9.35
2023-04-15T12:26:17.416Z,9.34
2023-04-15T12:28:45.059Z,9.70
2023-04-15T12:31:13.447Z,9.38
2023-04-15T12:33:41.074Z,9.37
2023-04-15T12:36:10.248Z,9.14
2023-04-15T12:38:37.760Z,9.25
2023-04-15T12:41:05.290Z,9.38
2023-04-15T12:43:32.706Z,9.58
2023-04-15T12:46:00.157Z,9.19
2023-04-15T12:48:27.607Z,9.27
2023-04-15T12:50:55.049Z,8.96
2023-04-15T12:53:23.876Z,9.09
2023-04-15T12:55:51.501Z,9.14
2023-04-15T12:58:19.467Z,8.97
2023-04-15T13:00:47.334Z,9.15
2023-04-15T13:03:15.815Z,9.06
2023-04-15T13:05:44.047Z,8.98
2023-04-15T13:08:11.576Z,9.18
2023-04-15T13:10:42.310Z,9.40
2023-04-15T13:13:10.028Z,9.14
2023-04-15T13:15:37.970Z,8.91
2023-04-15T13:18:07.639Z,8.97
2023-04-15T13:20:35.320Z,9.05
2023-04-15T13:23:02.958Z,8.48
2023-04-15T13:25:30.700Z,8.65
2023-04-15T13:28:01.126Z,8.71
2023-04-15T13:30:28.816Z,8.61
2023-04-15T13:32:56.283Z,8.61
2023-04-15T13:35:23.737Z,9.07
2023-04-15T13:37:51.375Z,8.82
2023-04-15T13:40:18.798Z,8.59
2023-04-15T13:42:47.011Z,8.83
2023-04-15T13:45:16.127Z,9.08
2023-04-15T13:47:43.641Z,8.87
2023-04-15T13:50:11.743Z,9.10
2023-04-15T13:52:39.393Z,8.79
2023-04-15T13:55:19.339Z,8.47
2023-04-15T13:57:48.248Z,8.19
2023-04-15T14:00:17.732Z,8.54
2023-04-15T14:02:45.820Z,8.44
2023-04-15T14:05:13.337Z,8.18
2023-04-15T14:07:41.286Z,8.24
2023-04-15T14:10:09.617Z,7.83
2023-04-15T14:12:37.124Z,8.14
2023-04-15T14:15:05.204Z,7.92
2023-04-15T14:17:34.539Z,7.89
2023-04-15T14:20:02.124Z,7.87
2023-04-15T14:22:29.703Z,8.06
2023-04-15T14:24:57.201Z,7.80
2023-04-15T14:27:24.656Z,7.95
2023-04-15T14:29:53.410Z,7.80
2023-04-15T14:32:20.968Z,7.88
2023-04-15T14:34:49.808Z,7.83
2023-04-15T14:37:17.254Z,7.65
2023-04-15T14:39:44.667Z,7.52
2023-04-15T14:42:12.126Z,7.51
2023-04-15T14:44:39.642Z,7.42
2023-04-15T14:47:07.165Z,7.19
2023-04-15T14:49:34.627Z,7.40
2023-04-15T14:52:04.206Z,7.50
2023-04-15T14:54:34.741Z,7.50
2023-04-15T14:57:02.662Z,7.17
2023-04-15T14:59:30.379Z,7.57
2023-04-15T15:01:58.013Z,7.56
2023-04-15T15:04:25.866Z,7.61
2023-04-15T15:06:53.396Z,7.67
2023-04-15T15:09:23.766Z,7.75
2023-04-15T15:11:51.650Z,7.49
2023-04-15T15:14:21.661Z,7.44
2023-04-15T15:16:49.632Z,7.42
2023-04-15T15:19:17.162Z,7.16
2023-04-15T15:21:44.591Z,7.21
2023-04-15T15:24:12.031Z,7.23
2023-04-15T15:26:41.020Z,7.11
2023-04-15T15:29:08.448Z,7.23
2023-04-15T15:31:36.272Z,7.28
2023-04-15T15:34:05.521Z,7.18
2023-04-15T15:36:33.012Z,7.18
2023-04-15T15:39:00.565Z,7.29
2023-04-15T15:41:27.996Z,7.13
2023-04-15T15:43:56.917Z,7.33
2023-04-15T15:46:24.946Z,7.19
2023-04-15T15:48:52.431Z,7.17
2023-04-15T15:51:19.918Z,7.08
2023-04-15T15:53:47.450Z,7.26
2023-04-15T15:56:14.929Z,7.30
2023-04-15T15:58:43.780Z,7.25
2023-04-15T16:01:12.818Z,7.28
2023-04-15T16:03:40.736Z,7.24
2023-04-15T16:06:08.367Z,7.26
2023-04-15T16:08:35.928Z,7.36
2023-04-15T16:11:03.413Z,7.46
2023-04-15T16:13:30.922Z,7.55
2023-04-15T16:15:58.426Z,7.47
2023-04-15T16:18:35.447Z,7.50
2023-04-15T16:21:03.021Z,7.57
2023-04-15T16:23:30.839Z,7.64
2023-04-15T16:25:58.360Z,7.56
2023-04-15T16:28:27.131Z,7.54
2023-04-15T16:30:55.476Z,7.51
2023-04-15T16:33:22.961Z,7.55
2023-04-15T16:35:51.837Z,7.56
2023-04-15T16:38:19.275Z,7.53
2023-04-15T16:40:46.755Z,7.47
2023-04-15T16:43:14.939Z,7.49
2023-04-15T16:45:51.202Z,7.33
2023-04-15T16:48:19.197Z,7.22
2023-04-15T16:50:46.984Z,7.20
2023-04-15T16:53:16.500Z,7.21
2023-04-15T16:55:44.021Z,7.19
2023-04-15T16:58:11.515Z,7.23
2023-04-15T17:00:39.014Z,7.21
2023-04-15T17:03:07.027Z,7.16
2023-04-15T17:05:34.687Z,7.08
2023-04-15T17:08:02.240Z,7.15
2023-04-15T17:10:31.553Z,7.10
2023-04-15T17:12:59.744Z,6.90
2023-04-15T17:15:27.649Z,6.83
2023-04-15T17:17:55.648Z,6.72
2023-04-15T17:20:23.242Z,6.82
2023-04-15T17:22:50.937Z,6.84
2023-04-15T17:25:19.324Z,6.85
2023-04-15T17:27:48.143Z,6.84
2023-04-15T17:30:15.613Z,6.90
2023-04-15T17:32:43.192Z,6.70
2023-04-15T17:35:11.204Z,6.74
2023-04-15T17:37:38.924Z,6.57
2023-04-15T17:40:17.045Z,6.36
2023-04-15T17:42:44.822Z,6.59
2023-04-15T17:45:13.815Z,6.57
2023-04-15T17:47:41.467Z,6.52
2023-04-15T17:50:09.872Z,6.53
2023-04-15T17:52:37.336Z,6.53
2023-04-15T17:55:05.195Z,6.50
2023-04-15T17:57:32.756Z,6.41
2023-04-15T18:00:00.304Z,6.27
2023-04-15T18:02:29.349Z,6.30
2023-04-15T18:04:57.210Z,6.25
2023-04-15T18:07:24.883Z,6.20
2023-04-15T18:09:55.730Z,6.20
2023-04-15T18:12:23.228Z,5.94
2023-04-15T18:14:50.701Z,6.06
2023-04-15T18:17:18.886Z,5.89
2023-04-15T18:19:48.359Z,5.80
2023-04-15T18:22:15.975Z,6.07
2023-04-15T18:24:43.483Z,5.80
2023-04-15T18:27:11.071Z,5.77
2023-04-15T18:29:38.734Z,5.58
2023-04-15T18:32:06.354Z,5.66
2023-04-15T18:34:34.135Z,5.60
2023-04-15T18:37:03.385Z,5.58
2023-04-15T18:39:30.963Z,5.64
2023-04-15T18:42:00.234Z,5.46
2023-04-15T18:44:28.609Z,5.36
2023-04-15T18:46:56.160Z,5.39
2023-04-15T18:49:23.692Z,5.34
2023-04-15T18:51:51.272Z,5.38
2023-04-15T18:54:20.169Z,5.42
2023-04-15T18:56:49.016Z,5.26
2023-04-15T18:59:29.325Z,5.13
2023-04-15T19:01:59.246Z,5.25
2023-04-15T19:04:28.829Z,5.21
2023-04-15T19:06:57.163Z,5.28
2023-04-15T19:09:26.692Z,5.02
2023-04-15T19:11:54.313Z,5.00
2023-04-15T19:14:21.964Z,5.29
2023-04-15T19:16:49.490Z,5.32
2023-04-15T19:19:17.034Z,5.31
2023-04-15T19:21:45.418Z,5.16
2023-04-15T19:24:13.026Z,5.12
2023-04-15T19:26:41.962Z,5.24
2023-04-15T19:29:09.451Z,5.17
2023-04-15T19:31:37.054Z,5.14
2023-04-15T19:34:04.584Z,5.25
2023-04-15T19:36:33.187Z,5.19
2023-04-15T19:39:01.541Z,5.23
2023-04-15T19:41:32.230Z,5.12
2023-04-15T19:44:02.953Z,4.78
2023-04-15T19:46:30.647Z,4.99
2023-04-15T19:48:58.873Z,4.98
2023-04-15T19:51:28.679Z,4.97
2023-04-15T19:53:56.967Z,4.96
2023-04-15T19:56:25.555Z,4.67
2023-04-15T19:58:53.935Z,4.72
2023-04-15T20:01:23.505Z,4.74
2023-04-15T20:03:53.923Z,4.69
2023-04-15T20:06:22.405Z,4.71
2023-04-15T20:08:49.902Z,4.39
2023-04-15T20:11:17.654Z,4.57
2023-04-15T20:13:45.393Z,4.60
2023-04-15T20:16:13.306Z,4.48
2023-04-15T20:18:42.463Z,4.62
2023-04-15T20:21:10.198Z,4.56
2023-04-15T20:23:38.263Z,4.61
2023-04-15T20:26:06.378Z,4.47
2023-04-15T20:28:34.199Z,4.50
2023-04-15T20:31:02.491Z,4.59
2023-04-15T20:33:34.129Z,4.35
2023-04-15T20:36:04.169Z,4.39
2023-04-15T20:38:32.224Z,4.36
2023-04-15T20:41:00.300Z,4.48
2023-04-15T20:43:28.165Z,4.49
2023-04-15T20:45:58.745Z,4.50
2023-04-15T20:48:30.188Z,4.58
2023-04-15T20:50:59.459Z,4.66
2023-04-15T20:53:28.609Z,4.62
2023-04-15T20:55:56.400Z,4.57
2023-04-15T20:58:26.468Z,4.63
2023-04-15T21:00:55.458Z,4.68
2023-04-15T21:03:23.486Z,4.66
2023-04-15T21:05:51.264Z,4.64
2023-04-15T21:08:18.940Z,4.45
2023-04-15T21:10:47.945Z,4.52
2023-04-15T21:13:20.571Z,4.63
2023-04-15T21:15:50.159Z,4.48
2023-04-15T21:18:18.147Z,4.63
2023-04-15T21:20:46.512Z,4.39
2023-04-15T21:23:14.304Z,4.41
2023-04-15T21:25:42.030Z,4.48
2023-04-15T21:28:11.650Z,4.48
2023-04-15T21:30:39.141Z,4.46
2023-04-15T21:33:06.993Z,4.35
2023-04-15T21:35:34.589Z,4.41
2023-04-15T21:38:02.233Z,4.54
2023-04-15T21:40:29.931Z,4.52
2023-04-15T21:42:58.084Z,4.42
2023-04-15T21:45:27.686Z,4.33
2023-04-15T21:48:00.773Z,4.45
2023-04-15T21:50:37.326Z,4.55
2023-04-15T21:53:05.754Z,4.52
2023-04-15T21:55:33.190Z,4.46
2023-04-15T21:58:00.962Z,4.54
2023-04-15T22:00:30.054Z,4.31
2023-04-15T22:02:57.774Z,4.28
2023-04-15T22:05:26.358Z,4.33
2023-04-15T22:07:53.938Z,4.29
2023-04-15T22:10:21.789Z,4.27
2023-04-15T22:12:49.510Z,4.15
2023-04-15T22:15:17.683Z,4.27
2023-04-15T22:17:47.051Z,4.34
2023-04-15T22:20:14.891Z,4.29
2023-04-15T22:22:44.352Z,4.21
2023-04-15T22:25:12.767Z,4.32
2023-04-15T22:27:40.371Z,4.27
2023-04-15T22:30:09.103Z,4.18
2023-04-15T22:32:36.792Z,4.37
2023-04-15T22:35:08.394Z,4.32
2023-04-15T22:37:36.317Z,4.24
2023-04-15T22:40:04.324Z,4.21
2023-04-15T22:42:32.653Z,4.33
2023-04-15T22:45:00.844Z,4.14
2023-04-15T22:47:28.340Z,4.28
2023-04-15T22:49:55.945Z,4.30
2023-04-15T22:52:30.612Z,4.31
2023-04-15T22:54:58.872Z,4.28
2023-04-15T22:57:27.975Z,4.32
2023-04-15T22:59:56.012Z,4.00
2023-04-15T23:02:23.694Z,4.14
2023-04-15T23:04:51.356Z,4.20
2023-04-15T23:07:18.853Z,4.28
2023-04-15T23:09:47.701Z,4.25
2023-04-15T23:12:15.160Z,4.09
2023-04-15T23:14:42.684Z,4.23
2023-04-15T23:17:10.390Z,4.22
2023-04-15T23:19:38.166Z,4.05
2023-04-15T23:22:06.938Z,4.16
2023-04-15T23:24:34.513Z,4.14
2023-04-15T23:27:03.642Z,4.00
2023-04-15T23:29:31.806Z,4.17
2023-04-15T23:31:59.409Z,4.12
2023-04-15T23:34:27.048Z,4.10
2023-04-15T23:36:54.576Z,4.14
2023-04-15T23:39:22.077Z,4.04
2023-04-15T23:41:49.582Z,4.03
2023-04-15T23:44:18.455Z,4.11
2023-04-15T23:46:46.264Z,4.15
2023-04-15T23:49:13.767Z,4.05
2023-04-15T23:51:42.030Z,4.15
2023-04-15T23:54:09.592Z,4.14
2023-04-15T23:56:37.502Z,4.04
2023-04-15T23:59:04.989Z,4.11
